createdAt,value
2022-10-30T00:02:04.599Z,8.98
2022-10-30T00:07:06.058Z,8.80
2022-10-30T00:12:07.471Z,8.30
2022-10-30T00:17:08.835Z,8.57
2022-10-30T00:22:10.234Z,8.68
2022-10-30T00:27:11.595Z,8.68
2022-10-30T00:32:12.998Z,8.60
2022-10-30T00:37:14.359Z,8.73
2022-10-30T00:42:16.119Z,8.52
2022-10-30T00:47:25.073Z,8.90
2022-10-30T00:52:28.176Z,8.45
2022-10-30T00:57:29.539Z,8.20
2022-10-30T01:02:31.025Z,7.90
2022-10-30T01:07:32.515Z,7.47
2022-10-30T01:12:33.872Z,7.72
2022-10-30T01:17:57.784Z,8.20
2022-10-30T01:23:06.015Z,7.45
2022-10-30T01:28:17.579Z,8.35
2022-10-30T01:33:34.011Z,7.75
2022-10-30T01:38:38.552Z,7.63
2022-10-30T01:43:39.912Z,7.47
2022-10-30T01:49:18.856Z,7.53
2022-10-30T01:55:07.956Z,7.10
2022-10-30T02:00:10.732Z,6.82
2022-10-30T02:05:13.767Z,7.45
2022-10-30T02:10:15.146Z,7.13
2022-10-30T02:15:16.510Z,7.35
2022-10-30T02:20:19.067Z,7.20
2022-10-30T02:25:20.433Z,7.47
2022-10-30T02:30:21.796Z,7.65
2022-10-30T02:35:23.164Z,7.55
2022-10-30T02:40:24.527Z,7.50
2022-10-30T02:45:25.923Z,7.43
2022-10-30T02:50:27.311Z,7.18
2022-10-30T02:55:28.684Z,6.85
2022-10-30T03:00:30.079Z,6.88
2022-10-30T03:05:31.450Z,6.75
2022-10-30T03:10:32.816Z,7.07
2022-10-30T03:15:34.177Z,7.10
2022-10-30T03:20:35.551Z,7.38
2022-10-30T03:25:36.920Z,7.40
2022-10-30T03:30:38.279Z,6.95
2022-10-30T03:35:39.647Z,6.88
2022-10-30T03:40:41.050Z,6.55
2022-10-30T03:45:50.472Z,6.55
2022-10-30T03:50:55.131Z,6.80
2022-10-30T03:56:00.532Z,6.38
2022-10-30T04:01:03.015Z,6.50
2022-10-30T04:06:04.505Z,6.85
2022-10-30T04:11:05.893Z,6.28
2022-10-30T04:16:07.428Z,6.90
2022-10-30T04:21:08.795Z,6.38
2022-10-30T04:26:10.159Z,6.68
2022-10-30T04:31:11.524Z,6.75
2022-10-30T04:36:12.899Z,6.63
2022-10-30T04:41:14.263Z,6.72
2022-10-30T04:46:17.032Z,6.50
2022-10-30T04:51:18.401Z,6.30
2022-10-30T04:56:19.951Z,6.30
2022-10-30T05:01:21.392Z,6.07
2022-10-30T05:06:26.292Z,6.03
2022-10-30T05:11:27.716Z,5.93
2022-10-30T05:16:29.083Z,6.30
2022-10-30T05:21:30.459Z,6.15
2022-10-30T05:26:31.831Z,6.40
2022-10-30T05:31:33.186Z,5.72
2022-10-30T05:36:34.554Z,6.68
2022-10-30T05:41:35.907Z,6.28
2022-10-30T05:46:37.275Z,6.05
2022-10-30T05:51:40.588Z,5.68
2022-10-30T05:56:42.298Z,5.75
2022-10-30T06:06:46.368Z,6.10
2022-10-30T06:11:47.727Z,5.72
2022-10-30T06:16:49.188Z,5.63
2022-10-30T06:21:50.576Z,6.05
2022-10-30T06:26:51.952Z,5.55
2022-10-30T06:31:53.315Z,5.82
2022-10-30T06:36:54.886Z,6.07
2022-10-30T06:41:56.525Z,5.60
2022-10-30T06:46:57.893Z,6.10
2022-10-30T06:51:59.258Z,6.25
2022-10-30T06:57:00.716Z,5.75
2022-10-30T07:02:03.371Z,5.88
2022-10-30T07:07:08.306Z,5.95
2022-10-30T07:12:09.732Z,5.85
2022-10-30T07:17:11.119Z,6.03
2022-10-30T07:22:12.483Z,5.53
2022-10-30T07:27:13.842Z,5.63
2022-10-30T07:32:15.202Z,6.30
2022-10-30T07:37:16.559Z,6.25
2022-10-30T07:42:17.935Z,5.53
2022-10-30T07:47:19.304Z,6.30
2022-10-30T07:52:20.659Z,5.72
2022-10-30T07:57:22.026Z,6.03
2022-10-30T08:02:23.547Z,6.63
2022-10-30T08:07:35.094Z,5.85
2022-10-30T08:12:37.331Z,5.72
2022-10-30T08:17:45.979Z,5.82
2022-10-30T08:22:51.442Z,6.53
2022-10-30T08:27:59.260Z,6.03
2022-10-30T08:33:02.132Z,5.95
2022-10-30T08:38:03.767Z,6.18
2022-10-30T08:43:05.139Z,6.65
2022-10-30T08:48:06.751Z,6.72
2022-10-30T08:53:10.281Z,6.47
2022-10-30T08:58:11.634Z,6.43
2022-10-30T09:03:12.998Z,6.40
2022-10-30T09:08:14.379Z,6.45
2022-10-30T09:13:15.739Z,6.63
2022-10-30T09:18:17.113Z,6.10
2022-10-30T09:23:18.480Z,6.72
2022-10-30T09:28:19.838Z,6.55
2022-10-30T09:33:21.195Z,6.60
2022-10-30T09:38:22.555Z,6.55
2022-10-30T09:43:35.527Z,6.60
2022-10-30T09:48:52.424Z,6.93
2022-10-30T09:54:05.256Z,6.47
2022-10-30T09:59:17.700Z,6.68
2022-10-30T10:04:37.672Z,6.43
2022-10-30T10:09:39.227Z,7.00
2022-10-30T10:14:44.735Z,7.40
2022-10-30T10:19:53.252Z,7.32
2022-10-30T10:24:54.648Z,6.82
2022-10-30T10:30:12.368Z,6.25
2022-10-30T10:35:21.082Z,6.65
2022-10-30T10:40:37.009Z,7.03
2022-10-30T10:45:41.165Z,7.40
2022-10-30T10:50:52.892Z,6.68
2022-10-30T10:55:55.588Z,7.30
2022-10-30T11:00:58.250Z,6.78
2022-10-30T11:06:19.248Z,7.18
2022-10-30T11:11:20.610Z,7.38
2022-10-30T11:16:31.418Z,6.72
2022-10-30T11:21:35.123Z,6.90
2022-10-30T11:26:36.490Z,6.75
2022-10-30T11:31:42.232Z,7.13
2022-10-30T11:36:50.583Z,7.18
2022-10-30T11:42:14.614Z,7.07
2022-10-30T11:47:16.504Z,6.85
2022-10-30T11:52:18.998Z,7.07
2022-10-30T11:57:36.036Z,7.38
2022-10-30T12:02:42.618Z,6.53
2022-10-30T12:07:44.001Z,6.55
2022-10-30T12:12:45.411Z,6.85
2022-10-30T12:17:53.690Z,7.00
2022-10-30T12:22:55.101Z,7.13
2022-10-30T12:28:07.832Z,6.93
2022-10-30T12:33:15.098Z,6.70
2022-10-30T12:38:27.620Z,7.85
2022-10-30T12:43:29.028Z,7.60
2022-10-30T12:48:33.897Z,6.78
2022-10-30T12:53:59.625Z,6.75
2022-10-30T13:04:18.786Z,6.95
2022-10-30T13:09:44.159Z,7.57
2022-10-30T13:14:47.936Z,6.60
2022-10-30T13:19:50.909Z,7.13
2022-10-30T13:25:04.008Z,7.22
2022-10-30T13:30:07.134Z,7.40
2022-10-30T13:35:20.562Z,7.13
2022-10-30T13:40:27.753Z,7.50
2022-10-30T13:46:08.163Z,6.70
2022-10-30T13:51:27.774Z,7.47
2022-10-30T13:56:29.135Z,7.68
2022-10-30T14:01:37.680Z,7.43
2022-10-30T14:06:51.191Z,7.60
2022-10-30T14:11:55.583Z,7.63
2022-10-30T14:17:16.040Z,7.45
2022-10-30T14:22:23.708Z,7.80
2022-10-30T14:27:30.273Z,7.55
2022-10-30T14:32:35.298Z,7.85
2022-10-30T14:37:36.544Z,7.50
2022-10-30T14:43:07.070Z,7.65
2022-10-30T14:48:16.427Z,7.47
2022-10-30T14:53:32.822Z,7.82
2022-10-30T14:58:38.028Z,7.70
2022-10-30T15:03:49.671Z,7.70
2022-10-30T15:09:14.786Z,8.52
2022-10-30T15:14:52.690Z,7.95
2022-10-30T15:19:50.695Z,8.07
2022-10-30T15:24:52.055Z,8.05
2022-10-30T15:29:59.271Z,9.07
2022-10-30T15:35:03.111Z,8.30
2022-10-30T15:40:13.902Z,8.63
2022-10-30T15:45:20.019Z,8.25
2022-10-30T15:50:21.664Z,8.60
2022-10-30T15:55:27.786Z,8.80
2022-10-30T16:00:34.515Z,9.00
2022-10-30T16:05:35.998Z,9.20
2022-10-30T16:10:37.359Z,8.88
2022-10-30T16:15:38.990Z,8.57
2022-10-30T16:20:41.361Z,9.07
2022-10-30T16:25:46.948Z,8.98
2022-10-30T16:30:49.066Z,9.10
2022-10-30T16:35:54.800Z,9.05
2022-10-30T16:40:57.374Z,8.85
2022-10-30T16:46:13.619Z,9.95
2022-10-30T16:51:16.414Z,9.18
2022-10-30T16:56:23.482Z,8.45
2022-10-30T17:01:26.258Z,9.43
2022-10-30T17:06:47.963Z,9.60
2022-10-30T17:12:07.715Z,9.70
2022-10-30T17:17:22.532Z,9.88
2022-10-30T17:22:23.950Z,9.75
2022-10-30T17:27:46.540Z,9.32
2022-10-30T17:32:52.911Z,10.50
2022-10-30T17:43:01.245Z,9.98
2022-10-30T17:48:03.001Z,10.45
2022-10-30T17:53:04.551Z,9.50
2022-10-30T17:58:05.920Z,10.02
2022-10-30T18:03:07.330Z,10.48
2022-10-30T18:08:08.691Z,10.20
2022-10-30T18:13:12.379Z,10.48
2022-10-30T18:18:13.760Z,10.82
2022-10-30T18:23:52.275Z,9.82
2022-10-30T18:28:43.475Z,10.45
2022-10-30T18:33:44.891Z,10.40
2022-10-30T18:38:46.270Z,10.73
2022-10-30T18:43:47.697Z,10.43
2022-10-30T18:48:49.079Z,10.73
2022-10-30T18:53:53.422Z,11.35
2022-10-30T18:58:58.746Z,10.88
2022-10-30T19:04:04.319Z,10.45
2022-10-30T19:09:06.098Z,10.82
2022-10-30T19:14:12.006Z,10.00
2022-10-30T19:24:17.630Z,10.35
2022-10-30T19:29:18.990Z,9.95
2022-10-30T19:34:20.356Z,10.80
2022-10-30T19:39:21.718Z,10.30
2022-10-30T19:44:23.087Z,10.50
2022-10-30T19:49:24.583Z,10.63
2022-10-30T19:54:25.945Z,11.20
2022-10-30T19:59:27.307Z,10.23
2022-10-30T20:04:28.676Z,10.05
2022-10-30T20:09:30.861Z,10.68
2022-10-30T20:14:32.220Z,10.65
2022-10-30T20:19:33.588Z,9.30
2022-10-30T20:24:34.952Z,9.65
2022-10-30T20:29:36.775Z,9.88
2022-10-30T20:34:38.150Z,10.15
2022-10-30T20:39:39.507Z,9.57
2022-10-30T20:44:40.879Z,9.90
2022-10-30T20:49:42.457Z,9.48
2022-10-30T20:54:43.819Z,10.55
2022-10-30T20:59:45.183Z,10.23
2022-10-30T21:04:46.553Z,9.60
2022-10-30T21:09:47.927Z,9.15
2022-10-30T21:14:49.313Z,9.88
2022-10-30T21:19:50.724Z,9.68
2022-10-30T21:24:52.091Z,10.32
2022-10-30T21:29:53.446Z,9.43
2022-10-30T21:34:54.811Z,9.57
2022-10-30T21:39:56.167Z,9.32
2022-10-30T21:44:57.544Z,9.73
2022-10-30T21:49:58.907Z,9.63
2022-10-30T21:55:00.274Z,10.00
2022-10-30T22:00:05.603Z,8.80
2022-10-30T22:05:07.747Z,9.52
2022-10-30T22:10:09.119Z,9.82
2022-10-30T22:15:10.643Z,8.65
2022-10-30T22:20:12.026Z,9.00
2022-10-30T22:25:13.427Z,8.43
2022-10-30T22:30:14.796Z,8.02
2022-10-30T22:35:16.156Z,8.88
2022-10-30T22:40:17.518Z,7.60
2022-10-30T22:45:18.892Z,8.10
2022-10-30T22:50:20.247Z,7.80
2022-10-30T22:55:21.606Z,8.32
2022-10-30T23:00:27.308Z,8.52
2022-10-30T23:05:28.672Z,7.32
2022-10-30T23:10:30.034Z,8.35
2022-10-30T23:15:31.447Z,7.80
2022-10-30T23:20:32.820Z,7.45
2022-10-30T23:25:34.747Z,7.80
2022-10-30T23:30:36.611Z,7.82
2022-10-30T23:35:37.983Z,8.30
2022-10-30T23:40:39.343Z,7.57
2022-10-30T23:45:40.710Z,7.05
2022-10-30T23:50:42.080Z,7.50
2022-10-30T23:55:52.906Z,7.43
